• Join FlightAware (Why Join?)
  • Login
  • US Flag GB Flag 
08:32 EST


 

Airport Tracker/Info


-or-


 

Live Flight TrackerFlight Track Log ✈ ASQ6151 ✈ 08-May-2013 ✈ KORD - KPIA

Flight Track Log - Related Links

Times and Time Zones

All times are in EDT time to prevent confusion due to time zone crossing. See the ASQ6151 flight status page for this flight to view local times or setup timezone preferences in your user account.

Time Position Orientation Groundspeed Altitude Reporting Facility
EDT Latitude Longitude Course Direction KTS MPH feet Rate Location/Type
22:42 41.9167 -87.9500 270° West 225 259 4,300  Level Chicago TRACON
22:43 41.8500 -87.9833 200° South 263 303 6,300 2,340 Climbing Chicago TRACON
22:44 41.8069 -87.9956 192° South 261 300 8,100 3,120 Climbing Chicago Center
22:45 41.7872 -88.0864 254° West 270 311 11,300 2,100 Climbing Chicago Center
22:46 41.7833 -88.2044 268° West 316 364 12,400 1,140 Climbing Chicago Center
22:47 41.9667 -88.6438 270° West  Level FlightAware Approximate
22:47 41.7778 -88.3394 267° West 365 420 13,700  Level Chicago Center
22:48 41.9667 -88.7677 270° West  Level FlightAware Approximate
22:48 41.7733 -88.4792 268° West 378 435 14,000  Level Chicago Center
22:49 41.7678 -88.6461 268° West 379 436 14,100  Climbing Chicago Center
22:50 41.7528 -88.7803 262° West 375 432 14,100 -60 Level Chicago Center
22:51 41.6764 -88.8744 223° Southwest 379 436 14,000 -60 Descending Chicago Center
22:52 41.5853 -88.9486 211° Southwest 387 445 14,000  Level Chicago Center
22:53 41.4969 -89.0261 213° Southwest 384 442 14,100  Climbing Chicago Center
22:54 41.4125 -89.1058 215° Southwest 379 436 14,000 -240 Descending Chicago Center
22:55 41.3247 -89.1764 211° Southwest 375 432 13,700 -1,140 Descending Chicago Center
22:56 41.2333 -89.2325 205° Southwest 363 418 11,700 -1,800 Descending Chicago Center
22:57 41.1253 -89.2928 203° Southwest 353 406 10,100 -840 Descending Chicago Center
22:58 41.0350 -89.3467 204° Southwest 354 407 10,000 -120 Descending Chicago Center
22:59 40.9525 -89.3944 204° Southwest 318 366 9,900 -1,140 Descending Chicago Center
23:00 40.8803 -89.4342 203° Southwest 284 327 7,700 -1,920 Descending Chicago Center
23:01 40.8106 -89.4761 204° Southwest 276 318 6,000 -1,680 Descending Chicago Center
23:02 40.7447 -89.5128 203° Southwest 261 300 4,300 -1,680 Descending Chicago Center
23:03 40.6814 -89.5486 203° Southwest 250 288 2,700 -1,620 Descending Chicago Center